Time;durP1;ratioP1;P1;durP2;ratioP2;P2;SDS_P1;SDS_P2;PMS_P1;PMS_P2;Temp;Humidity;BMP_temperature;BMP_pressure;BME280_temperature;BME280_humidity;BME280_pressure;Samples;Min_cycle;Max_cycle;Signal;HPM_P1;HPM_P2
2021/04/21 08:42:21;;;;;;;18.52;12.82;;;13.70;99.90;;;13.00;66.68;101162.66;4163175;23;20090;-68
2021/04/21 08:44:23;;;;;;;16.92;11.85;;;13.90;99.90;;;13.04;65.67;101154.25;4086827;29;20169;-68
2021/04/21 08:46:24;;;;;;;19.42;12.05;;;13.90;99.90;;;13.15;66.93;101156.63;4086206;29;20032;-68
2021/04/21 08:48:28;;;;;;;17.05;12.90;;;14.00;99.90;;;13.32;66.68;101160.13;4087041;29;20027;-68
2021/04/21 08:50:34;;;;;;;16.27;12.02;;;14.10;99.90;;;13.40;65.39;101154.00;4087883;29;20405;-68
2021/04/21 08:52:55;;;;;;;15.05;11.77;;;14.20;99.90;;;13.61;67.43;101157.00;4087464;29;20031;-68
2021/04/21 08:54:57;;;;;;;15.13;11.98;;;14.30;99.90;;;13.59;64.71;101159.81;4088437;29;20064;-69
2021/04/21 08:57:01;;;;;;;16.83;12.65;;;14.50;99.90;;;13.51;65.82;101151.03;4088239;29;20317;-69
2021/04/21 08:59:07;;;;;;;19.95;12.88;;;14.50;99.90;;;13.61;66.50;101157.00;4085032;29;20026;-68
2021/04/21 09:01:10;;;;;;;17.80;12.30;;;14.50;99.90;;;13.58;66.73;101150.22;4072695;29;20040;-68
2021/04/21 09:03:12;;;;;;;18.60;12.73;;;14.60;99.90;;;13.55;65.87;101149.72;4072653;29;20130;-68
2021/04/21 09:05:17;;;;;;;17.95;12.98;;;14.60;99.90;;;13.73;64.86;101158.34;4071328;29;20084;-68
2021/04/21 09:07:18;;;;;;;17.33;13.25;;;14.70;99.90;;;13.92;66.55;101155.31;4072603;29;20064;-68
2021/04/21 09:09:19;;;;;;;17.27;12.85;;;14.80;99.90;;;14.01;66.43;101156.97;4071372;29;20079;-68
2021/04/21 09:11:20;;;;;;;15.57;11.55;;;14.90;99.90;;;14.23;65.73;101166.06;4072325;29;20032;-68
2021/04/21 09:13:20;;;;;;;23.65;14.48;;;15.00;99.90;;;14.26;65.11;101161.25;4072629;29;20032;-68
2021/04/21 09:15:21;;;;;;;16.95;12.15;;;15.20;99.90;;;14.44;64.86;101153.09;4072584;29;20032;-68
2021/04/21 09:17:23;;;;;;;19.70;13.27;;;15.30;99.90;;;14.38;63.85;101161.75;4086653;29;20462;-68
2021/04/21 09:19:24;;;;;;;19.90;12.93;;;15.40;99.90;;;14.56;64.23;101167.66;4087048;29;20431;-68
2021/04/21 09:21:32;;;;;;;17.20;12.40;;;15.50;99.90;;;14.45;61.61;101165.38;4088053;29;20051;-68
2021/04/21 09:23:41;;;;;;;17.33;12.30;;;15.50;99.90;;;14.55;61.90;101160.69;4088234;29;20079;-73
2021/04/21 09:25:44;;;;;;;19.20;12.27;;;15.50;99.90;;;14.70;62.06;101158.97;4088306;29;20079;-72
2021/04/21 09:27:54;;;;;;;15.98;12.63;;;15.60;99.90;;;14.84;61.30;101170.72;4087109;29;20027;-69
2021/04/21 09:30:12;;;;;;;18.15;11.77;;;15.70;99.90;;;14.98;62.32;101156.69;4085912;29;20055;-71
2021/04/21 09:32:13;;;;;;;19.88;12.23;;;15.90;99.90;;;15.05;61.28;101164.78;4084620;29;20103;-71
2021/04/21 09:34:16;;;;;;;15.82;10.98;;;16.00;99.90;;;15.11;61.31;101151.66;4080478;29;20039;-71
2021/04/21 09:36:52;;;;;;;13.83;10.70;;;16.00;99.90;;;15.26;59.45;101154.38;4073710;29;20434;-71
2021/04/21 09:38:53;;;;;;;14.52;10.55;;;16.20;99.30;;;15.32;58.52;101154.47;4033561;29;20033;-71
2021/04/21 09:41:04;;;;;;;15.13;11.32;;;16.30;98.70;;;15.50;56.72;101164.88;4057163;29;20048;-70
2021/04/21 09:43:08;;;;;;;16.27;10.93;;;16.40;97.70;;;15.70;57.13;101160.72;4071419;29;20507;-70
2021/04/21 09:45:10;;;;;;;16.13;10.15;;;16.50;97.80;;;15.59;56.37;101152.34;4071644;29;20036;-70
2021/04/21 09:47:13;;;;;;;16.40;11.98;;;16.60;97.00;;;15.68;57.98;101159.25;4071910;29;20028;-71
2021/04/21 09:49:34;;;;;;;17.40;10.25;;;16.70;97.80;;;15.91;58.01;101163.53;4074897;29;20048;-70
2021/04/21 09:51:35;;;;;;;14.13;9.18;;;16.80;98.00;;;15.82;55.23;101155.78;4074606;29;20031;-71
2021/04/21 09:53:50;;;;;;;17.25;10.25;;;16.90;96.40;;;16.00;54.83;101161.59;4079900;29;20076;-70
2021/04/21 09:56:16;;;;;;;16.35;9.82;;;17.00;96.20;;;15.90;53.69;101135.25;4071669;29;20028;-71
2021/04/21 09:58:42;;;;;;;19.08;10.98;;;17.00;95.30;;;16.01;53.80;101158.75;4077844;29;20036;-72
2021/04/21 10:00:43;;;;;;;15.25;10.10;;;17.10;96.00;;;16.01;53.66;101149.94;4087197;29;20483;-71
2021/04/21 10:02:43;;;;;;;15.77;10.23;;;17.10;94.80;;;16.29;54.15;101156.31;4087261;29;20035;-71
2021/04/21 10:04:44;;;;;;;14.20;10.20;;;17.20;95.10;;;16.32;56.52;101152.44;4087306;29;20027;-70
2021/04/21 10:07:02;;;;;;;19.80;10.68;;;17.30;96.60;;;16.33;56.76;101160.28;4087413;29;20027;-70
2021/04/21 10:09:04;;;;;;;16.38;9.35;;;17.40;96.40;;;16.17;57.08;101133.81;4086198;29;20024;-71
2021/04/21 10:11:05;;;;;;;14.77;10.80;;;17.30;96.30;;;16.33;55.08;101149.63;4087244;29;20118;-70
2021/04/21 10:13:19;;;;;;;15.23;11.02;;;17.40;95.40;;;16.37;56.58;101145.56;4085858;29;20032;-71
2021/04/21 10:15:30;;;;;;;15.05;9.30;;;17.40;96.50;;;16.29;54.40;101152.81;4085836;29;20063;-72
2021/04/21 10:17:39;;;;;;;11.45;9.18;;;17.40;94.90;;;16.40;55.78;101141.69;4078112;29;20087;-69
2021/04/21 10:19:42;;;;;;;12.95;8.95;;;17.50;95.40;;;16.66;56.66;101144.78;4085629;29;20035;-69
2021/04/21 10:21:43;;;;;;;12.55;9.90;;;17.60;96.10;;;16.78;55.05;101148.63;4076720;29;20035;-71
2021/04/21 10:23:47;;;;;;;16.05;9.68;;;17.80;95.30;;;16.77;53.91;101146.13;4100925;29;20134;-72
2021/04/21 10:25:49;;;;;;;14.68;9.40;;;17.90;94.60;;;16.82;55.73;101144.53;4085173;29;20059;-71
2021/04/21 10:27:50;;;;;;;11.57;9.02;;;17.90;95.40;;;17.01;53.49;101151.97;4079161;29;20053;-72
2021/04/21 10:29:51;;;;;;;12.65;9.07;;;17.90;94.40;;;17.19;52.57;101146.22;4072028;29;20032;-71
2021/04/21 10:31:54;;;;;;;11.13;8.20;;;18.10;94.00;;;17.26;53.52;101146.28;4071706;29;20116;-72
2021/04/21 10:33:56;;;;;;;10.65;8.57;;;18.10;94.30;;;17.28;51.89;101150.41;4071447;29;20035;-71
2021/04/21 10:35:58;;;;;;;13.80;8.93;;;18.30;93.20;;;17.15;50.99;101134.25;4078496;29;20020;-71
2021/04/21 10:37:59;;;;;;;14.48;8.40;;;18.30;92.40;;;17.31;51.46;101128.69;4071543;29;20032;-71
2021/04/21 10:40:00;;;;;;;11.40;7.88;;;18.40;92.70;;;17.56;52.28;101145.16;4072246;29;20056;-71
2021/04/21 10:42:05;;;;;;;14.57;8.77;;;18.50;93.20;;;17.60;52.97;101147.25;4075274;29;20364;-71
2021/04/21 10:44:16;;;;;;;11.05;8.40;;;18.60;93.90;;;17.50;51.65;101144.03;4084866;29;20127;-71
2021/04/21 10:46:18;;;;;;;13.30;8.45;;;18.60;92.40;;;17.65;52.33;101152.03;4074515;29;20567;-72
2021/04/21 10:48:41;;;;;;;12.45;8.70;;;18.60;92.90;;;17.55;50.29;101147.00;4074809;29;20031;-72
2021/04/21 10:50:48;;;;;;;16.90;9.68;;;18.60;91.80;;;17.51;51.16;101148.38;4077511;29;20035;-71
2021/04/21 10:52:49;;;;;;;18.80;9.27;;;18.60;91.80;;;17.41;49.67;101144.38;4083574;29;20406;-70
2021/04/21 10:55:02;;;;;;;14.35;8.50;;;18.60;90.70;;;17.67;51.53;101140.13;4089748;29;20034;-70
2021/04/21 10:57:21;;;;;;;17.00;7.97;;;18.70;92.20;;;17.80;49.06;101142.06;4089026;29;20083;-70
2021/04/21 10:59:42;;;;;;;14.52;9.18;;;18.80;90.70;;;17.52;49.19;101135.84;4079976;29;20110;-72
2021/04/21 11:01:43;;;;;;;16.45;9.02;;;18.90;90.10;;;17.69;50.76;101138.09;4075973;29;20034;-71
2021/04/21 11:03:44;;;;;;;14.45;9.32;;;18.90;91.20;;;17.90;49.68;101133.72;4088482;29;20060;-71
2021/04/21 11:05:48;;;;;;;15.65;9.25;;;18.90;90.70;;;17.91;52.28;101143.41;4089814;29;20020;-71
2021/04/21 11:08:23;;;;;;;14.77;8.60;;;18.90;92.00;;;17.92;49.10;101134.38;4089608;29;20510;-71
2021/04/21 11:10:46;;;;;;;14.05;8.57;;;19.00;90.90;;;17.95;48.64;101134.78;4073981;29;20051;-71
2021/04/21 11:12:54;;;;;;;17.50;7.93;;;19.00;89.00;;;18.27;47.54;101136.06;4073625;29;20067;-72
2021/04/21 11:14:57;;;;;;;12.27;6.88;;;19.20;88.50;;;18.28;49.00;101136.88;4073801;29;20036;-72
2021/04/21 11:17:07;;;;;;;13.15;8.57;;;19.30;89.80;;;18.13;48.41;101127.13;4073816;29;20395;-72
2021/04/21 11:19:17;;;;;;;14.45;7.70;;;19.30;88.50;;;18.37;47.86;101127.69;4072810;29;20036;-72
2021/04/21 11:21:20;;;;;;;10.10;7.47;;;19.40;87.70;;;18.44;45.73;101123.19;4076323;29;20122;-72
2021/04/21 11:23:52;;;;;;;19.65;7.85;;;19.40;85.80;;;18.65;47.17;101120.44;4088189;29;20032;-72
2021/04/21 11:25:52;;;;;;;12.65;7.72;;;19.60;86.80;;;18.82;46.02;101128.97;4089195;29;20154;-71
2021/04/21 11:27:54;;;;;;;15.63;6.60;;;19.70;85.50;;;18.64;46.51;101118.78;4088182;29;20023;-71
2021/04/21 11:29:55;;;;;;;10.35;6.70;;;19.80;85.10;;;18.16;44.41;101117.88;4089453;29;20122;-71
2021/04/21 11:31:56;;;;;;;10.32;6.47;;;19.70;80.50;;;18.37;45.67;101115.13;4087899;29;20039;-72
2021/04/21 11:33:58;;;;;;;12.38;6.88;;;19.60;82.20;;;18.56;43.61;101121.63;4088982;29;20479;-71
2021/04/21 11:36:38;;;;;;;12.13;7.35;;;19.70;80.00;;;18.92;44.43;101113.34;4087923;29;20114;-71
2021/04/21 11:38:43;;;;;;;14.73;7.63;;;19.80;81.80;;;19.15;44.29;101103.13;4087796;29;20036;-73
2021/04/21 11:40:44;;;;;;;12.93;6.63;;;20.10;81.30;;;19.40;43.95;101114.09;4087890;29;20118;-71
2021/04/21 11:42:46;;;;;;;7.40;5.65;;;20.30;80.90;;;19.29;41.39;101110.16;4088603;29;20518;-72
2021/04/21 11:44:52;;;;;;;9.30;4.80;;;20.40;76.50;;;19.39;42.01;101109.72;4079103;29;20038;-71
2021/04/21 11:47:01;;;;;;;10.93;5.72;;;20.50;77.30;;;19.49;40.53;101099.50;4073273;29;20099;-71
2021/04/21 11:49:02;;;;;;;16.10;8.20;;;20.70;75.80;;;19.56;41.16;101094.97;4072440;29;20517;-71
2021/04/21 11:51:17;;;;;;;8.38;6.40;;;20.80;74.90;;;19.74;42.54;101100.53;4076589;29;20032;-71
2021/04/21 11:53:22;;;;;;;10.48;7.25;;;21.00;75.90;;;19.49;40.20;101107.50;4086268;29;20066;-71
2021/04/21 11:58:29;;;;;;;13.40;5.85;;;21.10;71.90;;;19.37;41.36;101093.06;4088912;29;20091;-71
2021/04/21 12:00:34;;;;;;;8.52;5.65;;;21.10;76.10;;;19.62;40.74;101102.97;4048892;29;20573;-71
2021/04/21 12:02:35;;;;;;;10.07;6.88;;;21.20;73.00;;;19.42;42.04;101112.84;4089139;29;20497;-71
2021/04/21 12:04:36;;;;;;;12.65;6.30;;;21.10;73.10;;;19.40;43.11;101106.06;4089091;29;20031;-71
2021/04/21 12:06:38;;;;;;;16.70;6.13;;;21.00;74.30;;;19.22;41.20;101099.44;4087900;29;20055;-70
2021/04/21 12:08:44;;;;;;;12.05;5.80;;;21.00;72.00;;;19.35;40.70;101098.63;4087845;29;20028;-71
2021/04/21 12:10:45;;;;;;;14.05;6.05;;;21.00;71.20;;;19.81;40.50;101096.81;4089092;29;20486;-71
2021/04/21 12:12:47;;;;;;;12.32;5.13;;;21.20;71.40;;;19.83;39.66;101096.59;4088542;29;20031;-71
2021/04/21 12:15:03;;;;;;;9.60;4.80;;;21.30;69.90;;;19.75;42.20;101100.31;4087613;29;20035;-71
2021/04/21 12:17:10;;;;;;;9.23;5.13;;;21.20;72.80;;;19.47;39.44;101086.31;4089132;29;20043;-71
2021/04/21 12:19:12;;;;;;;8.13;4.50;;;21.10;68.30;;;19.08;39.19;101087.06;4088909;29;20031;-71
2021/04/21 12:21:16;;;;;;;7.28;3.80;;;20.90;67.50;;;19.31;38.90;101094.72;4088848;29;20079;-71
2021/04/21 12:23:32;;;;;;;12.23;3.90;;;20.70;66.90;;;19.25;37.63;101095.53;4088991;29;20028;-71
2021/04/21 12:25:33;;;;;;;6.20;3.30;;;20.60;64.80;;;19.22;39.39;101082.56;4088773;29;20031;-72
2021/04/21 12:27:34;;;;;;;5.53;3.30;;;20.50;67.70;;;19.60;39.38;101085.47;4088386;29;20035;-72
2021/04/21 12:29:35;;;;;;;6.25;3.92;;;20.60;68.20;;;19.57;38.62;101076.00;4088818;29;20035;-71
2021/04/21 12:31:37;;;;;;;18.58;4.35;;;20.70;67.70;;;19.60;38.80;101085.47;4087650;29;20032;-71
2021/04/21 12:33:38;;;;;;;5.13;3.10;;;20.70;66.80;;;19.81;36.88;101083.41;4087651;29;20028;-71
2021/04/21 12:35:40;;;;;;;8.85;4.32;;;20.80;64.50;;;20.04;37.29;101082.16;4088578;29;20071;-71
2021/04/21 12:37:42;;;;;;;13.82;4.03;;;21.00;64.80;;;20.20;41.79;101087.03;4071706;29;20024;-71
2021/04/21 12:39:44;;;;;;;12.20;4.45;;;21.20;71.40;;;20.26;41.32;101086.22;4088732;29;20068;-71
2021/04/21 12:41:58;;;;;;;5.07;3.65;;;21.30;70.00;;;20.25;37.01;101085.41;4088506;29;20031;-70
2021/04/21 12:44:24;;;;;;;8.10;3.70;;;21.40;64.20;;;20.37;36.20;101088.25;4075004;29;20039;-71
2021/04/21 12:46:24;;;;;;;6.85;3.63;;;21.50;63.00;;;19.98;39.58;101081.09;4088417;29;20032;-70
2021/04/21 12:48:28;;;;;;;10.32;5.05;;;21.40;65.50;;;19.78;40.02;101083.81;4088322;29;20024;-71
2021/04/21 12:50:32;;;;;;;9.27;4.15;;;21.30;66.30;;;19.65;39.04;101086.50;4080859;29;20020;-71
2021/04/21 12:52:34;;;;;;;10.13;4.03;;;21.10;65.30;;;19.60;40.06;101080.94;4071587;29;20436;-71
2021/04/21 12:54:44;;;;;;;12.02;4.78;;;21.00;66.60;;;19.61;39.74;101087.97;4072667;29;20080;-71
2021/04/21 12:56:50;;;;;;;7.38;4.28;;;20.80;66.30;;;19.68;39.69;101094.13;4071373;29;20119;-71
2021/04/21 12:58:51;;;;;;;9.02;4.15;;;20.80;67.10;;;19.42;38.24;101088.78;4072692;29;20024;-71
2021/04/21 13:01:10;;;;;;;12.30;3.83;;;20.60;64.10;;;19.41;39.03;101095.19;4072890;29;20035;-71
2021/04/21 13:03:21;;;;;;;8.50;3.88;;;20.50;65.20;;;19.43;38.45;101090.44;4071478;29;20029;-70
2021/04/21 13:05:48;;;;;;;8.90;3.92;;;20.30;64.50;;;19.45;40.30;101087.53;4072596;29;20028;-71
2021/04/21 13:07:49;;;;;;;10.68;4.30;;;20.40;67.30;;;19.51;39.80;101087.53;4072539;29;20123;-71
2021/04/21 13:09:50;;;;;;;14.15;5.38;;;20.50;66.60;;;19.42;40.23;101085.28;4072724;29;20032;-71
2021/04/21 13:12:01;;;;;;;10.18;4.45;;;20.50;66.70;;;19.35;40.31;101083.38;4071266;29;20091;-71
2021/04/21 13:14:04;;;;;;;13.35;4.72;;;20.40;66.70;;;19.36;42.63;101084.22;4071250;29;20531;-71
2021/04/21 13:16:06;;;;;;;11.63;4.28;;;20.40;70.80;;;19.27;39.45;101072.06;4072381;29;20028;-70
2021/04/21 13:18:12;;;;;;;5.70;3.53;;;20.40;65.60;;;19.55;39.59;101079.94;4071265;29;20487;-70
2021/04/21 13:20:14;;;;;;;9.15;3.58;;;20.50;66.20;;;19.65;40.77;101083.81;4071973;29;20024;-72
2021/04/21 13:22:16;;;;;;;7.32;3.65;;;20.60;67.90;;;19.83;39.06;101073.31;4072340;29;20024;-71
2021/04/21 13:24:20;;;;;;;9.00;3.55;;;20.80;65.10;;;20.12;37.89;101072.03;4072044;29;20087;-71
2021/04/21 13:26:22;;;;;;;17.23;4.53;;;21.20;64.00;;;20.41;36.27;101073.41;4072079;29;20036;-72
2021/04/21 13:28:53;;;;;;;11.00;4.57;;;21.60;61.40;;;20.55;39.48;101072.31;4072053;29;20035;-71
2021/04/21 13:31:11;;;;;;;12.27;3.47;;;21.80;64.00;;;20.55;39.11;101072.31;4067768;29;20107;-72
2021/04/21 13:33:12;;;;;;;5.43;3.60;;;21.90;64.40;;;20.12;37.74;101061.31;4087939;29;20031;-72
2021/04/21 13:35:16;;;;;;;7.20;3.15;;;21.70;62.50;;;20.08;40.46;101068.13;4087710;29;20035;-72
2021/04/21 13:37:17;;;;;;;8.70;3.65;;;21.50;66.00;;;19.83;39.72;101070.63;4087470;29;20027;-71
2021/04/21 13:39:17;;;;;;;11.25;3.63;;;21.20;64.40;;;20.04;36.73;101050.81;4087867;29;20043;-72
2021/04/21 13:41:20;;;;;;;6.13;3.33;;;21.20;62.60;;;20.28;36.87;101057.41;4087599;29;20063;-72
2021/04/21 13:43:21;;;;;;;6.20;3.28;;;21.30;62.10;;;20.34;35.76;101061.88;4087520;29;20050;-71
2021/04/21 13:45:22;;;;;;;9.27;3.60;;;21.40;60.20;;;20.05;35.08;101070.38;4073236;29;20094;-72
2021/04/21 13:47:24;;;;;;;10.23;3.65;;;21.60;58.20;;;20.39;35.47;101064.75;4072126;29;20035;-71
2021/04/21 13:49:25;;;;;;;5.35;3.17;;;21.70;58.60;;;20.31;36.27;101059.63;4072217;29;20087;-72
2021/04/21 13:51:26;;;;;;;6.80;2.97;;;21.80;59.20;;;20.46;33.86;101068.22;4075839;29;20476;-71
2021/04/21 13:53:27;;;;;;;6.35;2.53;;;21.90;57.30;;;20.86;33.10;101058.94;4085873;29;20028;-71
2021/04/21 13:55:28;;;;;;;12.15;3.03;;;22.10;56.20;;;21.00;33.37;101066.94;4087799;29;20036;-72
2021/04/21 13:57:29;;;;;;;7.50;3.30;;;22.30;56.70;;;20.43;35.30;101065.97;4087431;29;20568;-72
2021/04/21 13:59:30;;;;;;;9.82;3.80;;;22.00;58.00;;;20.01;35.99;101048.56;4087496;29;20040;-72
2021/04/21 14:01:35;;;;;;;7.30;3.75;;;21.90;58.10;;;19.78;36.67;101056.22;4087466;29;20023;-71
2021/04/21 14:03:36;;;;;;;11.13;3.53;;;21.60;58.50;;;19.91;35.36;101050.03;4086224;29;20046;-72
2021/04/21 14:05:38;;;;;;;9.48;3.85;;;21.40;57.10;;;19.85;36.53;101049.84;4087392;29;20391;-71
2021/04/21 14:07:40;;;;;;;7.63;3.10;;;21.30;58.90;;;20.20;38.92;101046.84;4087519;29;20039;-72
2021/04/21 14:09:41;;;;;;;6.53;3.80;;;21.40;62.60;;;20.45;35.52;101057.72;4087391;29;20028;-72
2021/04/21 14:11:43;;;;;;;8.35;4.28;;;21.70;58.50;;;20.15;34.51;101052.03;4087429;29;20364;-72
2021/04/21 14:13:44;;;;;;;7.00;3.28;;;21.80;56.50;;;20.36;36.89;101049.09;4087745;29;20487;-71
2021/04/21 14:15:45;;;;;;;5.38;3.40;;;21.90;59.30;;;20.25;34.40;101050.56;4090681;29;20031;-71
2021/04/21 14:17:46;;;;;;;9.48;3.72;;;21.90;55.90;;;19.97;35.46;101046.53;4089380;29;20491;-72
2021/04/21 14:19:47;;;;;;;11.10;3.47;;;21.70;56.70;;;20.13;37.51;101043.41;4090555;29;20032;-71
2021/04/21 14:21:48;;;;;;;10.90;4.20;;;21.70;59.40;;;20.13;36.11;101046.06;4090321;29;20087;-72
2021/04/21 14:23:50;;;;;;;7.65;3.95;;;21.70;57.70;;;19.87;36.22;101041.59;4090396;29;20069;-72
2021/04/21 14:25:51;;;;;;;7.10;3.65;;;21.70;57.60;;;20.02;36.75;101055.56;4090433;29;20028;-72
2021/04/21 14:27:52;;;;;;;9.48;4.32;;;21.50;58.90;;;19.55;37.34;101050.50;4090324;29;20575;-71
2021/04/21 14:29:53;;;;;;;8.93;4.55;;;21.30;59.20;;;19.31;38.57;101049.22;4088965;29;20549;-72
2021/04/21 14:31:54;;;;;;;5.18;3.78;;;20.90;60.00;;;19.51;37.53;101055.44;4089125;29;20036;-71
2021/04/21 14:33:55;;;;;;;12.25;3.78;;;20.70;59.60;;;19.45;37.00;101056.25;4090273;29;20154;-71
2021/04/21 14:35:56;;;;;;;6.10;3.83;;;20.60;58.50;;;19.67;37.41;101049.66;4090603;29;20667;-71
2021/04/21 14:37:57;;;;;;;8.27;3.65;;;20.70;60.20;;;19.59;36.37;101033.81;4089032;29;20044;-71
2021/04/21 14:40:00;;;;;;;12.05;5.25;;;20.80;58.10;;;19.83;36.84;101045.75;4090420;29;20039;-72
2021/04/21 14:42:00;;;;;;;13.73;4.45;;;20.90;59.50;;;19.59;37.37;101030.34;4090099;29;20023;-72
2021/04/21 14:44:02;;;;;;;7.47;4.78;;;21.00;59.40;;;19.63;36.80;101032.38;4088685;29;20580;-71
2021/04/21 14:46:03;;;;;;;8.23;4.72;;;21.10;58.30;;;19.83;37.29;101032.34;4083177;29;20034;-72
2021/04/21 14:48:05;;;;;;;7.78;4.35;;;21.10;59.20;;;19.97;35.86;101022.41;4074741;29;20491;-72
2021/04/21 14:50:07;;;;;;;8.00;4.60;;;21.30;57.40;;;20.35;39.41;101040.25;4078362;29;20162;-72
2021/04/21 14:52:09;;;;;;;10.70;4.47;;;21.50;61.70;;;20.49;35.35;101035.63;4078813;29;20539;-71
2021/04/21 14:54:12;;;;;;;11.50;4.35;;;21.70;57.70;;;20.46;36.94;101044.09;4090297;29;20519;-71
2021/04/21 14:56:16;;;;;;;7.27;4.07;;;21.70;58.80;;;20.15;36.00;101030.59;4089910;29;20031;-72
2021/04/21 14:58:17;;;;;;;9.57;3.97;;;21.60;57.30;;;20.29;36.74;101034.91;4090123;29;20032;-71
2021/04/21 15:00:19;;;;;;;8.18;4.45;;;21.50;58.50;;;20.05;36.21;101044.44;4089995;29;20035;-71
2021/04/21 15:02:20;;;;;;;9.57;4.85;;;21.40;57.70;;;20.11;37.52;101042.75;4089911;29;20039;-71
2021/04/21 15:04:21;;;;;;;10.00;4.30;;;21.40;59.10;;;20.14;37.58;101039.66;4089756;29;20023;-71
2021/04/21 15:06:22;;;;;;;6.43;4.22;;;21.40;59.40;;;19.99;35.88;101042.59;4088698;29;20032;-71
2021/04/21 15:08:24;;;;;;;14.60;4.00;;;21.20;58.00;;;19.92;36.63;101032.94;4090108;29;20035;-71
2021/04/21 15:10:25;;;;;;;9.25;4.32;;;21.10;58.20;;;19.94;36.46;101030.88;4088924;29;20028;-71
2021/04/21 15:12:26;;;;;;;11.80;3.85;;;21.00;57.70;;;19.94;37.01;101030.88;4089954;29;20028;-72
2021/04/21 15:14:27;;;;;;;13.57;4.38;;;21.00;59.50;;;19.52;36.41;101008.94;4088883;29;20035;-72
2021/04/21 15:16:29;;;;;;;11.57;5.38;;;20.80;57.50;;;19.22;36.71;101023.72;4090048;29;20036;-71
2021/04/21 15:18:30;;;;;;;9.50;4.50;;;20.60;57.20;;;19.47;36.50;101031.97;4088886;29;20628;-71
2021/04/21 15:20:31;;;;;;;11.15;3.70;;;20.50;57.80;;;19.52;38.57;101024.16;4089845;29;20110;-72
2021/04/21 15:22:33;;;;;;;9.65;4.00;;;20.40;60.30;;;19.39;37.12;100998.22;4088557;29;20031;-71
2021/04/21 15:24:35;;;;;;;9.55;3.70;;;20.50;58.80;;;19.80;37.89;101011.34;4090010;29;20372;-72
2021/04/21 15:26:38;;;;;;;7.20;5.07;;;20.60;60.20;;;19.45;37.04;101024.16;4087392;29;20035;-72
2021/04/21 15:28:38;;;;;;;7.43;4.18;;;20.70;58.80;;;19.62;37.55;101021.88;4089726;29;20044;-72
2021/04/21 15:30:51;;;;;;;9.05;4.65;;;20.80;59.20;;;19.54;37.33;101032.78;4088510;29;20032;-71
2021/04/21 15:32:53;;;;;;;9.57;3.92;;;20.70;58.60;;;19.85;35.16;101030.28;4088551;29;20024;-72
2021/04/21 15:34:54;;;;;;;7.50;4.00;;;20.80;56.20;;;19.97;35.74;101015.22;4088366;29;20028;-72
2021/04/21 15:36:55;;;;;;;8.07;3.97;;;20.90;57.60;;;19.97;34.31;101012.53;4089625;29;20486;-71
2021/04/21 15:38:58;;;;;;;9.10;3.70;;;21.10;55.60;;;19.76;35.36;101027.00;4089648;29;20035;-71
2021/04/21 15:41:03;;;;;;;4.53;3.35;;;21.00;55.80;;;20.01;35.03;101018.31;4089415;29;20020;-71
2021/04/21 15:43:04;;;;;;;9.27;3.80;;;21.10;56.60;;;19.83;33.43;101025.13;4088142;29;20174;-71
2021/04/21 15:45:07;;;;;;;5.20;3.88;;;21.10;53.60;;;19.67;33.71;101022.91;4089546;29;20111;-71
2021/04/21 15:47:07;;;;;;;3.58;2.83;;;21.00;53.40;;;19.93;33.13;101015.81;4089624;29;20404;-72
2021/04/21 15:49:21;;;;;;;12.63;4.22;;;21.00;53.70;;;20.03;33.54;101022.41;4089449;29;20035;-71
2021/04/21 15:51:30;;;;;;;4.70;3.45;;;21.10;53.60;;;19.69;32.88;101002.09;4074821;29;20514;-72
2021/04/21 15:53:31;;;;;;;8.80;3.28;;;21.10;52.50;;;19.98;33.98;101019.50;4072511;29;20115;-72
2021/04/21 15:55:33;;;;;;;6.00;3.13;;;21.10;54.30;;;20.15;35.28;101014.53;4073510;29;20044;-71
2021/04/21 15:57:35;;;;;;;11.05;3.17;;;21.20;56.50;;;20.37;35.08;101024.75;4073413;29;20067;-72
2021/04/21 15:59:39;;;;;;;5.32;3.03;;;21.30;56.10;;;20.20;34.08;101007.50;4073340;29;20091;-71
2021/04/21 16:01:40;;;;;;;8.38;3.35;;;21.40;54.50;;;20.21;35.01;101024.41;4073301;29;20036;-71
2021/04/21 16:03:41;;;;;;;8.43;3.78;;;21.40;55.50;;;19.97;32.70;101028.59;4073369;29;20109;-72
2021/04/21 16:05:42;;;;;;;6.82;3.80;;;21.30;51.80;;;19.47;34.13;101014.09;4073362;29;20130;-71
2021/04/21 16:07:44;;;;;;;5.75;3.38;;;21.00;52.80;;;19.57;33.39;101019.00;4072077;29;20028;-72
2021/04/21 16:09:45;;;;;;;6.57;3.30;;;20.80;52.50;;;19.91;33.92;101023.25;4071977;29;20028;-71
2021/04/21 16:11:47;;;;;;;3.85;2.95;;;20.90;54.10;;;19.97;33.91;101022.41;4071923;29;20028;-72
2021/04/21 16:13:48;;;;;;;8.40;4.05;;;20.90;53.90;;;19.33;32.83;101025.75;4073440;29;20066;-71
2021/04/21 16:15:49;;;;;;;5.15;3.65;;;20.70;51.60;;;19.39;33.78;101019.63;4071990;29;20535;-71
2021/04/21 16:17:51;;;;;;;6.82;3.60;;;20.60;53.20;;;19.64;33.63;101023.31;4073063;29;20068;-71
2021/04/21 16:19:52;;;;;;;4.63;3.53;;;20.60;53.00;;;19.28;32.19;101023.72;4073178;29;20036;-72
2021/04/21 16:21:52;;;;;;;10.80;2.90;;;20.50;51.20;;;19.25;34.63;101017.97;4073360;29;20027;-72
2021/04/21 16:23:53;;;;;;;6.15;3.28;;;20.30;54.20;;;19.16;34.07;101027.22;4073024;29;20024;-72
2021/04/21 16:25:54;;;;;;;10.63;3.35;;;20.20;53.50;;;19.35;35.48;101035.22;4072693;29;20076;-72
2021/04/21 16:27:55;;;;;;;6.07;3.65;;;20.10;56.20;;;19.42;37.09;101042.47;4073155;29;20028;-71
2021/04/21 16:29:56;;;;;;;6.30;4.20;;;20.10;57.90;;;19.18;36.05;101028.66;4073103;29;20115;-72
2021/04/21 16:31:58;;;;;;;7.18;3.78;;;20.00;56.50;;;19.17;35.27;101036.88;4073042;29;20024;-72
2021/04/21 16:33:59;;;;;;;8.52;4.55;;;20.00;55.30;;;19.03;35.29;101028.00;4071748;29;20523;-71
2021/04/21 16:36:00;;;;;;;12.25;4.57;;;19.80;55.30;;;19.20;35.84;101041.84;4071751;29;20036;-72
2021/04/21 16:38:01;;;;;;;7.78;3.95;;;19.90;56.60;;;19.12;36.22;101029.47;4072585;29;20036;-71
2021/04/21 16:40:04;;;;;;;8.90;4.50;;;19.90;56.30;;;19.12;35.25;101036.66;4072966;29;20032;-71
2021/04/21 16:42:06;;;;;;;6.70;4.10;;;20.00;55.40;;;19.23;34.95;101020.03;4073088;29;20135;-71
2021/04/21 16:44:08;;;;;;;9.30;4.07;;;20.10;55.00;;;19.63;35.69;101031.53;4087017;29;20051;-71
2021/04/21 16:46:09;;;;;;;6.75;3.55;;;20.30;56.20;;;19.83;36.61;101025.13;4088594;29;20032;-72
2021/04/21 16:48:12;;;;;;;5.82;3.92;;;20.50;58.10;;;19.82;35.66;101036.88;4088550;29;20039;-72
2021/04/21 16:50:16;;;;;;;6.57;4.43;;;20.70;56.20;;;20.06;33.58;101031.88;4085351;29;20064;-71
2021/04/21 16:52:17;;;;;;;8.60;4.63;;;20.90;54.10;;;20.14;35.29;101029.78;4072989;29;20463;-71
2021/04/21 16:54:19;;;;;;;10.60;4.45;;;21.00;56.20;;;20.01;33.80;101035.16;4072765;29;20036;-71
2021/04/21 16:56:21;;;;;;;9.40;4.43;;;21.20;53.60;;;19.91;36.14;101034.78;4072395;29;20043;-71
2021/04/21 16:58:24;;;;;;;9.70;4.80;;;21.00;55.90;;;19.86;36.72;101035.41;4071184;29;20032;-71
2021/04/21 17:00:26;;;;;;;9.70;5.00;;;21.00;56.80;;;19.72;35.75;101031.13;4072499;29;20411;-71
2021/04/21 17:02:29;;;;;;;13.27;5.47;;;20.90;55.70;;;19.27;35.52;101037.28;4076800;29;20028;-71
2021/04/21 17:04:39;;;;;;;8.60;4.30;;;20.70;54.50;;;19.42;35.89;101032.59;4082741;29;20039;-71
2021/04/21 17:06:42;;;;;;;9.43;4.50;;;20.60;55.50;;;19.67;36.06;101033.59;4076430;29;20020;-72
2021/04/21 17:08:43;;;;;;;13.45;4.28;;;20.60;56.00;;;19.83;35.17;101032.34;4087905;29;20040;-71
2021/04/21 17:10:45;;;;;;;8.75;4.07;;;20.60;56.10;;;19.60;35.83;101035.47;4085143;29;20032;-71
2021/04/21 17:12:46;;;;;;;9.85;4.55;;;20.50;55.60;;;19.73;35.84;101043.47;4087071;29;20031;-71
2021/04/21 17:14:59;;;;;;;5.18;3.85;;;20.50;56.10;;;19.83;35.84;101046.53;4077536;29;20023;-72
2021/04/21 17:17:00;;;;;;;9.57;4.50;;;20.50;56.00;;;19.79;34.27;101023.91;4080571;29;20032;-71
2021/04/21 17:19:04;;;;;;;7.50;4.15;;;20.50;54.50;;;19.79;35.92;101036.47;4081206;29;20055;-71